createdAt,value
2023-04-08T00:01:03.356Z,9.00
2023-04-08T00:03:05.159Z,9.00
2023-04-08T00:05:07.177Z,9.00
2023-04-08T00:07:08.839Z,9.00
2023-04-08T00:09:10.812Z,9.00
2023-04-08T00:11:12.445Z,9.00
2023-04-08T00:13:14.938Z,9.00
2023-04-08T00:15:16.653Z,9.00
2023-04-08T00:17:18.362Z,9.00
2023-04-08T00:19:19.984Z,8.90
2023-04-08T00:21:21.904Z,8.90
2023-04-08T00:23:23.798Z,8.90
2023-04-08T00:25:25.948Z,8.90
2023-04-08T00:27:27.907Z,8.90
2023-04-08T00:29:29.715Z,8.90
2023-04-08T00:31:31.755Z,8.80
2023-04-08T00:33:33.737Z,8.80
2023-04-08T00:35:35.406Z,8.70
2023-04-08T00:37:37.208Z,8.60
2023-04-08T00:39:38.937Z,8.60
2023-04-08T00:41:40.738Z,8.60
2023-04-08T00:43:42.407Z,8.60
2023-04-08T00:45:44.036Z,8.50
2023-04-08T00:47:46.719Z,8.50
2023-04-08T00:49:48.560Z,8.60
2023-04-08T00:51:50.638Z,8.60
2023-04-08T00:53:52.249Z,8.60
2023-04-08T00:55:53.825Z,8.70
2023-04-08T00:57:56.116Z,8.70
2023-04-08T00:59:58.612Z,8.70
2023-04-08T01:02:00.407Z,8.60
2023-04-08T01:04:07.745Z,8.60
2023-04-08T01:06:18.379Z,8.60
2023-04-08T01:08:20.784Z,8.60
2023-04-08T01:10:25.604Z,8.70
2023-04-08T01:12:30.195Z,8.70
2023-04-08T01:14:32.805Z,8.70
2023-04-08T01:16:35.080Z,8.70
2023-04-08T01:18:37.156Z,8.70
2023-04-08T01:20:40.553Z,8.70
2023-04-08T01:23:00.747Z,8.60
2023-04-08T01:25:08.058Z,8.70
2023-04-08T01:27:10.936Z,8.60
2023-04-08T01:29:12.793Z,8.70
2023-04-08T01:31:15.360Z,8.70
2023-04-08T01:33:18.372Z,8.70
2023-04-08T01:35:20.418Z,8.60
2023-04-08T01:37:22.298Z,8.60
2023-04-08T01:39:25.356Z,8.70
2023-04-08T01:41:27.888Z,8.70
2023-04-08T01:43:29.741Z,8.60
2023-04-08T01:45:31.451Z,8.60
2023-04-08T01:47:34.190Z,8.70
2023-04-08T01:49:36.500Z,8.70
2023-04-08T01:51:38.859Z,8.70
2023-04-08T01:53:40.686Z,8.70
2023-04-08T01:55:43.223Z,8.70
2023-04-08T01:57:47.795Z,8.60
2023-04-08T01:59:51.727Z,8.70
2023-04-08T02:01:53.525Z,8.70
2023-04-08T02:03:57.372Z,8.70
2023-04-08T02:05:59.610Z,8.70
2023-04-08T02:08:01.367Z,8.70
2023-04-08T02:10:03.286Z,8.70
2023-04-08T02:12:04.921Z,8.60
2023-04-08T02:14:06.636Z,8.60
2023-04-08T02:16:25.584Z,8.60
2023-04-08T02:18:30.647Z,8.60
2023-04-08T02:20:38.116Z,8.60
2023-04-08T02:23:03.362Z,8.60
2023-04-08T02:25:08.208Z,8.60
2023-04-08T02:27:10.546Z,8.60
2023-04-08T02:29:13.288Z,8.60
2023-04-08T02:31:17.064Z,8.60
2023-04-08T02:33:19.955Z,8.50
2023-04-08T02:35:21.951Z,8.50
2023-04-08T02:37:23.678Z,8.50
2023-04-08T02:39:31.157Z,8.50
2023-04-08T02:41:32.779Z,8.50
2023-04-08T02:43:34.436Z,8.50
2023-04-08T02:45:41.315Z,8.40
2023-04-08T02:47:43.001Z,8.50
2023-04-08T02:49:44.783Z,8.40
2023-04-08T02:51:46.456Z,8.50
2023-04-08T02:53:48.141Z,8.50
2023-04-08T02:55:49.786Z,8.40
2023-04-08T02:57:51.465Z,8.40
2023-04-08T02:59:53.046Z,8.40
2023-04-08T03:01:54.754Z,8.40
2023-04-08T03:03:56.510Z,8.40
2023-04-08T03:05:58.338Z,8.40
2023-04-08T03:08:00.123Z,8.40
2023-04-08T03:10:02.090Z,8.40
2023-04-08T03:12:03.991Z,8.40
2023-04-08T03:14:05.688Z,8.40
2023-04-08T03:16:07.569Z,8.40
2023-04-08T03:18:09.338Z,8.30
2023-04-08T03:20:11.366Z,8.30
2023-04-08T03:22:13.394Z,8.30
2023-04-08T03:24:14.992Z,8.30
2023-04-08T03:26:16.697Z,8.30
2023-04-08T03:28:18.320Z,8.30
2023-04-08T03:30:20.053Z,8.30
2023-04-08T03:32:21.721Z,8.30
2023-04-08T03:34:23.379Z,8.30
2023-04-08T03:36:24.996Z,8.20
2023-04-08T03:38:26.592Z,8.20
2023-04-08T03:40:28.196Z,8.10
2023-04-08T03:42:29.900Z,8.10
2023-04-08T03:44:31.480Z,8.10
2023-04-08T03:46:33.191Z,8.20
2023-04-08T03:48:34.828Z,8.20
2023-04-08T03:50:36.476Z,8.10
2023-04-08T03:52:38.094Z,8.20
2023-04-08T03:54:39.665Z,8.20
2023-04-08T03:56:41.406Z,8.20
2023-04-08T03:58:43.051Z,8.20
2023-04-08T04:00:44.689Z,8.10
2023-04-08T04:02:46.470Z,8.10
2023-04-08T04:04:48.230Z,8.00
2023-04-08T04:06:49.989Z,8.10
2023-04-08T04:08:53.380Z,8.00
2023-04-08T04:10:55.060Z,8.00
2023-04-08T04:12:56.883Z,8.00
2023-04-08T04:14:58.480Z,8.00
2023-04-08T04:17:00.341Z,8.00
2023-04-08T04:19:02.062Z,7.90
2023-04-08T04:21:09.788Z,7.90
2023-04-08T04:23:11.626Z,7.90
2023-04-08T04:25:13.275Z,7.90
2023-04-08T04:27:15.480Z,7.90
2023-04-08T04:29:24.097Z,7.80
2023-04-08T04:31:36.713Z,7.80
2023-04-08T04:33:41.173Z,7.90
2023-04-08T04:35:59.532Z,7.80
2023-04-08T04:38:13.304Z,7.80
2023-04-08T04:40:20.493Z,7.80
2023-04-08T04:42:32.095Z,7.80
2023-04-08T04:47:05.658Z,7.80
2023-04-08T04:49:11.642Z,7.70
2023-04-08T04:51:26.799Z,7.70
2023-04-08T04:53:35.397Z,7.70
2023-04-08T04:56:00.355Z,7.70
2023-04-08T04:58:08.795Z,7.60
2023-04-08T05:00:13.602Z,7.70
2023-04-08T05:02:17.310Z,7.70
2023-04-08T05:04:28.420Z,7.70
2023-04-08T05:06:42.875Z,7.80
2023-04-08T05:08:47.543Z,7.80
2023-04-08T05:10:58.421Z,7.80
2023-04-08T05:13:08.960Z,7.90
2023-04-08T05:15:28.702Z,7.90
2023-04-08T05:17:46.645Z,7.90
2023-04-08T05:19:51.682Z,7.90
2023-04-08T05:22:22.576Z,7.90
2023-04-08T05:25:11.335Z,7.90
2023-04-08T05:27:49.459Z,8.00
2023-04-08T05:30:02.962Z,8.00
2023-04-08T05:32:10.868Z,8.00
2023-04-08T05:34:19.009Z,8.10
2023-04-08T05:36:29.436Z,8.10
2023-04-08T05:41:57.772Z,8.20
2023-04-08T05:50:48.262Z,8.10
2023-04-08T05:54:01.266Z,8.10
2023-04-08T05:56:54.959Z,8.20
2023-04-08T05:59:10.737Z,8.20
2023-04-08T06:03:57.678Z,8.30
2023-04-08T06:08:52.978Z,8.30
2023-04-08T06:17:25.140Z,8.20
2023-04-08T06:19:37.444Z,8.30
2023-04-08T06:24:45.256Z,8.30
2023-04-08T06:26:54.393Z,8.20
2023-04-08T06:29:03.441Z,8.20
2023-04-08T06:31:36.334Z,8.10
2023-04-08T06:34:56.973Z,8.10
2023-04-08T06:37:01.520Z,8.10
2023-04-08T07:05:57.072Z,8.40
2023-04-08T07:08:06.440Z,8.60
2023-04-08T07:10:56.182Z,8.40
2023-04-08T07:13:12.867Z,8.50
2023-04-08T07:15:46.304Z,8.60
2023-04-08T07:18:23.477Z,8.70
2023-04-08T07:26:45.867Z,8.60
2023-04-08T07:29:11.022Z,8.60
2023-04-08T08:03:32.549Z,9.30
2023-04-08T08:12:07.044Z,9.50
2023-04-08T08:22:59.918Z,9.10
2023-04-08T08:27:34.556Z,9.50
2023-04-08T08:32:58.379Z,9.70
2023-04-08T08:35:03.122Z,9.80
2023-04-08T08:37:23.333Z,9.70
2023-04-08T08:39:48.600Z,9.80
2023-04-08T08:46:52.786Z,10.10
2023-04-08T09:02:12.962Z,10.40
2023-04-08T09:04:53.784Z,10.10
2023-04-08T09:13:30.036Z,10.20
2023-04-08T09:24:38.454Z,10.80
2023-04-08T09:27:15.247Z,11.10
2023-04-08T09:29:57.421Z,11.20
2023-04-08T10:04:23.881Z,11.90
2023-04-08T10:06:37.131Z,11.60
2023-04-08T10:08:42.064Z,12.20
2023-04-08T10:10:46.190Z,12.00
2023-04-08T10:12:49.382Z,11.80
2023-04-08T10:15:17.662Z,11.90
2023-04-08T10:17:29.628Z,12.30
2023-04-08T10:19:41.583Z,12.40
2023-04-08T10:21:48.992Z,12.10
2023-04-08T10:24:01.684Z,11.90
2023-04-08T10:26:24.920Z,12.10
2023-04-08T10:28:27.290Z,11.80
2023-04-08T10:30:29.240Z,11.70
2023-04-08T10:32:40.970Z,11.80
2023-04-08T10:34:52.579Z,11.60
2023-04-08T10:39:15.928Z,11.70
2023-04-08T10:41:23.974Z,11.60
2023-04-08T10:43:26.015Z,11.50
2023-04-08T10:45:28.447Z,11.20
2023-04-08T10:47:31.122Z,11.30
2023-04-08T10:49:37.278Z,11.40
2023-04-08T10:51:40.520Z,11.40
2023-04-08T10:53:45.531Z,10.80
2023-04-08T10:55:48.718Z,10.80
2023-04-08T10:57:56.442Z,10.90
2023-04-08T11:00:02.724Z,10.90
2023-04-08T11:02:13.292Z,10.90
2023-04-08T11:04:18.126Z,11.00
2023-04-08T11:06:20.177Z,11.20
2023-04-08T11:08:27.545Z,11.40
2023-04-08T11:10:29.602Z,11.40
2023-04-08T11:12:32.930Z,11.40
2023-04-08T11:14:35.611Z,11.10
2023-04-08T11:16:39.232Z,11.20
2023-04-08T11:18:41.988Z,11.40
2023-04-08T11:20:47.230Z,11.20
2023-04-08T11:22:51.532Z,11.20
2023-04-08T11:24:53.477Z,11.40
2023-04-08T11:26:55.947Z,11.60
2023-04-08T11:28:58.852Z,11.50
2023-04-08T11:31:01.256Z,11.50
2023-04-08T11:33:03.753Z,11.70
2023-04-08T11:35:07.824Z,11.80
2023-04-08T11:46:20.559Z,11.10
2023-04-08T11:49:12.563Z,11.30
2023-04-08T11:51:24.024Z,11.30
2023-04-08T11:54:11.042Z,11.50
2023-04-08T11:56:36.803Z,11.30
2023-04-08T11:59:29.841Z,11.40
2023-04-08T12:01:37.587Z,11.30
2023-04-08T12:03:47.479Z,11.40
2023-04-08T12:09:08.315Z,11.40
2023-04-08T12:11:37.970Z,11.40
2023-04-08T12:19:04.645Z,11.10
2023-04-08T12:24:06.584Z,11.50
2023-04-08T12:26:15.773Z,11.80
2023-04-08T12:28:22.903Z,11.60
2023-04-08T12:30:28.489Z,11.60
2023-04-08T12:36:15.517Z,11.90
2023-04-08T12:38:29.187Z,11.60
2023-04-08T12:40:57.599Z,11.50
2023-04-08T12:43:08.857Z,11.70
2023-04-08T12:47:44.745Z,12.20
2023-04-08T12:50:23.747Z,12.40
2023-04-08T12:56:26.965Z,12.30
2023-04-08T13:00:46.757Z,12.20
2023-04-08T13:02:48.579Z,11.70
2023-04-08T13:04:51.559Z,11.40
2023-04-08T13:06:53.221Z,11.40
2023-04-08T13:08:54.974Z,11.70
2023-04-08T13:10:56.629Z,11.90
2023-04-08T13:12:58.376Z,11.80
2023-04-08T13:15:01.236Z,12.00
2023-04-08T13:17:02.866Z,11.80
2023-04-08T13:19:04.478Z,11.80
2023-04-08T13:21:06.213Z,11.80
2023-04-08T13:23:07.921Z,11.70
2023-04-08T13:25:09.642Z,11.80
2023-04-08T13:27:11.238Z,11.40
2023-04-08T13:29:12.790Z,11.60
2023-04-08T13:31:14.433Z,11.50
2023-04-08T13:33:16.176Z,11.40
2023-04-08T13:35:17.845Z,11.50
2023-04-08T13:37:19.692Z,11.60
2023-04-08T13:39:21.905Z,11.60
2023-04-08T13:41:25.182Z,11.60
2023-04-08T13:43:27.309Z,11.40
2023-04-08T13:45:28.943Z,11.40
2023-04-08T13:47:31.176Z,11.30
2023-04-08T13:49:32.945Z,11.10
2023-04-08T13:51:34.525Z,11.20
2023-04-08T13:53:36.302Z,11.10
2023-04-08T13:55:37.920Z,11.00
2023-04-08T13:57:39.510Z,11.10
2023-04-08T13:59:42.104Z,11.10
2023-04-08T14:01:45.694Z,11.30
2023-04-08T14:03:49.858Z,11.40
2023-04-08T14:05:51.461Z,11.40
2023-04-08T14:07:53.154Z,11.40
2023-04-08T14:09:54.781Z,11.40
2023-04-08T14:11:56.905Z,11.50
2023-04-08T14:13:58.545Z,11.40
2023-04-08T14:16:02.311Z,11.50
2023-04-08T14:18:04.060Z,11.40
2023-04-08T14:20:06.561Z,11.30
2023-04-08T14:22:08.327Z,10.90
2023-04-08T14:24:10.023Z,11.10
2023-04-08T14:26:11.760Z,11.30
2023-04-08T14:28:13.389Z,11.20
2023-04-08T14:30:14.968Z,11.10
2023-04-08T14:32:16.807Z,11.10
2023-04-08T14:34:18.423Z,11.20
2023-04-08T14:36:21.260Z,11.10
2023-04-08T14:38:23.114Z,11.20
2023-04-08T14:40:25.359Z,11.20
2023-04-08T14:42:26.956Z,11.20
2023-04-08T14:44:28.610Z,11.00
2023-04-08T14:46:30.482Z,11.00
2023-04-08T14:48:32.110Z,11.20
2023-04-08T14:50:33.727Z,11.30
2023-04-08T14:52:35.564Z,11.30
2023-04-08T14:54:37.288Z,11.30
2023-04-08T14:56:38.894Z,11.40
2023-04-08T14:58:40.594Z,11.50
2023-04-08T15:00:46.071Z,11.40
2023-04-08T15:02:47.733Z,11.30
2023-04-08T15:04:49.432Z,11.30
2023-04-08T15:06:51.464Z,11.40
2023-04-08T15:08:53.552Z,11.50
2023-04-08T15:10:55.278Z,11.30
2023-04-08T15:12:56.877Z,11.40
2023-04-08T15:14:58.651Z,11.50
2023-04-08T15:17:00.463Z,11.60
2023-04-08T15:19:02.232Z,11.60
2023-04-08T15:21:03.889Z,11.70
2023-04-08T15:23:06.041Z,11.60
2023-04-08T15:25:07.872Z,11.60
2023-04-08T15:27:09.697Z,11.60
2023-04-08T15:29:11.732Z,11.70
2023-04-08T15:31:13.612Z,11.70
2023-04-08T15:33:15.328Z,11.70
2023-04-08T15:35:17.039Z,11.80
2023-04-08T15:37:18.685Z,11.90
2023-04-08T15:39:20.264Z,11.90
2023-04-08T15:41:22.143Z,11.90
2023-04-08T15:43:23.789Z,11.90
2023-04-08T15:45:25.932Z,11.80
2023-04-08T15:47:28.198Z,11.70
2023-04-08T15:49:29.837Z,11.70
2023-04-08T15:51:32.996Z,11.70
2023-04-08T15:53:34.869Z,11.60
2023-04-08T15:55:39.928Z,11.60
2023-04-08T15:57:41.760Z,11.50
2023-04-08T15:59:43.442Z,11.30
2023-04-08T16:01:45.153Z,11.40
2023-04-08T16:03:46.932Z,11.50
2023-04-08T16:05:48.898Z,11.60
2023-04-08T16:07:50.568Z,11.60
2023-04-08T16:09:52.262Z,11.60
2023-04-08T16:11:54.039Z,11.40
2023-04-08T16:13:55.847Z,11.50
2023-04-08T16:15:58.275Z,11.50
2023-04-08T16:18:00.076Z,11.50
2023-04-08T16:20:02.516Z,11.40
2023-04-08T16:22:04.291Z,11.40
2023-04-08T16:24:06.004Z,11.40
2023-04-08T16:26:10.612Z,11.20
2023-04-08T16:28:12.443Z,11.20
2023-04-08T16:30:14.188Z,11.20
2023-04-08T16:32:15.845Z,11.10
2023-04-08T16:34:17.469Z,11.00
2023-04-08T16:36:19.431Z,11.00
2023-04-08T16:38:21.083Z,11.00
2023-04-08T16:40:22.730Z,10.90
2023-04-08T16:42:24.463Z,10.80
2023-04-08T16:44:26.122Z,10.80
2023-04-08T16:46:28.094Z,10.90
2023-04-08T16:48:29.841Z,10.80
2023-04-08T16:50:31.843Z,10.80
2023-04-08T16:52:33.795Z,10.70
2023-04-08T16:54:35.476Z,10.70
2023-04-08T16:56:37.097Z,10.70
2023-04-08T16:58:38.732Z,10.60
2023-04-08T17:00:40.478Z,10.50
2023-04-08T17:02:42.249Z,10.50
2023-04-08T17:04:44.141Z,10.50
2023-04-08T17:06:45.836Z,10.50
2023-04-08T17:08:47.533Z,10.40
2023-04-08T17:10:49.582Z,10.40
2023-04-08T17:12:51.313Z,10.40
2023-04-08T17:14:52.965Z,10.40
2023-04-08T17:16:54.715Z,10.40
2023-04-08T17:18:58.146Z,10.40
2023-04-08T17:20:59.852Z,10.40
2023-04-08T17:23:01.512Z,10.40
2023-04-08T17:25:03.268Z,10.30
2023-04-08T17:27:05.460Z,10.30
2023-04-08T17:29:07.147Z,10.20
2023-04-08T17:31:09.621Z,10.20
2023-04-08T17:33:11.220Z,10.10
2023-04-08T17:35:13.283Z,10.10
2023-04-08T17:37:14.950Z,10.20
2023-04-08T17:39:16.675Z,10.10
2023-04-08T17:41:29.778Z,10.10
2023-04-08T17:43:39.897Z,10.10
2023-04-08T17:45:41.524Z,10.10
2023-04-08T17:47:43.605Z,10.10
2023-04-08T17:49:45.269Z,10.10
2023-04-08T17:51:46.903Z,10.10
2023-04-08T17:53:48.599Z,10.00
2023-04-08T17:55:50.395Z,10.00
2023-04-08T17:57:52.227Z,9.90
2023-04-08T17:59:54.022Z,10.00
2023-04-08T18:01:55.903Z,9.90
2023-04-08T18:03:57.736Z,9.90
2023-04-08T18:05:59.396Z,9.80
2023-04-08T18:08:00.988Z,9.80
2023-04-08T18:10:02.668Z,9.80
2023-04-08T18:12:04.619Z,9.80
2023-04-08T18:14:06.458Z,9.80
2023-04-08T18:16:15.577Z,9.80
2023-04-08T18:18:20.047Z,9.70
2023-04-08T18:20:22.017Z,9.60
2023-04-08T18:22:23.708Z,9.60
2023-04-08T18:24:25.402Z,9.60
2023-04-08T18:26:28.287Z,9.60
2023-04-08T18:28:29.957Z,9.60
2023-04-08T18:30:31.716Z,9.60
2023-04-08T18:32:33.423Z,9.60
2023-04-08T18:34:35.315Z,9.60
2023-04-08T18:36:36.919Z,9.50
2023-04-08T18:38:40.024Z,9.50
2023-04-08T18:40:42.055Z,9.50
2023-04-08T18:42:43.630Z,9.50
2023-04-08T18:44:45.302Z,9.50
2023-04-08T18:46:46.983Z,9.40
2023-04-08T18:48:49.160Z,9.40
2023-04-08T18:50:50.844Z,9.50
2023-04-08T18:52:52.940Z,9.50
2023-04-08T18:54:54.641Z,9.50
2023-04-08T18:56:56.699Z,9.40
2023-04-08T18:58:58.721Z,9.40
2023-04-08T19:01:00.364Z,9.40
2023-04-08T19:03:03.842Z,9.40
2023-04-08T19:05:06.025Z,9.30
2023-04-08T19:07:07.729Z,9.30
2023-04-08T19:09:09.567Z,9.30
2023-04-08T19:11:11.173Z,9.20
2023-04-08T19:13:12.894Z,9.10
2023-04-08T19:15:14.708Z,9.20
2023-04-08T19:17:16.302Z,9.20
2023-04-08T19:19:17.984Z,9.30
2023-04-08T19:21:20.113Z,9.30
2023-04-08T19:23:21.797Z,9.20
2023-04-08T19:25:32.625Z,9.20
2023-04-08T19:27:37.524Z,9.20
2023-04-08T19:29:39.523Z,9.30
2023-04-08T19:31:41.613Z,9.30
2023-04-08T19:33:43.408Z,9.30
2023-04-08T19:35:45.264Z,9.30
2023-04-08T19:37:47.240Z,9.20
2023-04-08T19:39:48.900Z,9.30
2023-04-08T19:41:50.577Z,9.30
2023-04-08T19:43:52.518Z,9.20
2023-04-08T19:45:54.861Z,9.20
2023-04-08T19:47:56.522Z,9.20
2023-04-08T19:49:59.166Z,9.10
2023-04-08T19:52:01.222Z,9.10
2023-04-08T19:54:02.958Z,9.20
2023-04-08T19:56:04.622Z,9.20
2023-04-08T19:58:06.277Z,9.20
2023-04-08T20:00:08.229Z,9.10
2023-04-08T20:02:09.985Z,9.10
2023-04-08T20:04:11.791Z,9.10
2023-04-08T20:06:13.466Z,9.10
2023-04-08T20:08:15.723Z,9.10
2023-04-08T20:10:17.446Z,9.00
2023-04-08T20:12:19.114Z,9.00
2023-04-08T20:14:20.812Z,9.00
2023-04-08T20:16:22.913Z,9.00
2023-04-08T20:18:24.556Z,8.90
2023-04-08T20:20:27.251Z,8.90
2023-04-08T20:22:30.305Z,8.90
2023-04-08T20:24:31.927Z,8.90
2023-04-08T20:26:33.573Z,9.00
2023-04-08T20:28:35.215Z,8.90
2023-04-08T20:30:37.712Z,8.90
2023-04-08T20:32:39.415Z,8.90
2023-04-08T20:34:41.749Z,9.00
2023-04-08T20:36:43.693Z,8.90
2023-04-08T20:38:45.392Z,8.90
2023-04-08T20:40:46.985Z,8.90
2023-04-08T20:42:48.729Z,8.90
2023-04-08T20:44:50.316Z,8.90
2023-04-08T20:46:52.251Z,8.90
2023-04-08T20:48:54.166Z,8.80
2023-04-08T20:50:56.200Z,8.80
2023-04-08T20:52:58.397Z,8.70
2023-04-08T20:55:00.005Z,8.70
2023-04-08T20:57:01.658Z,8.60
2023-04-08T20:59:03.297Z,8.60
2023-04-08T21:01:04.950Z,8.60
2023-04-08T21:03:06.720Z,8.60
2023-04-08T21:05:08.534Z,8.60
2023-04-08T21:07:10.194Z,8.50
2023-04-08T21:09:11.919Z,8.50
2023-04-08T21:11:13.954Z,8.50
2023-04-08T21:13:15.852Z,8.50
2023-04-08T21:15:17.509Z,8.50
2023-04-08T21:17:19.164Z,8.50
2023-04-08T21:19:20.807Z,8.50
2023-04-08T21:21:22.450Z,8.40
2023-04-08T21:23:24.094Z,8.40
2023-04-08T21:25:26.525Z,8.40
2023-04-08T21:27:28.546Z,8.40
2023-04-08T21:29:30.372Z,8.30
2023-04-08T21:31:32.637Z,8.20
2023-04-08T21:33:34.285Z,8.20
2023-04-08T21:35:36.087Z,8.20
2023-04-08T21:37:37.756Z,8.20
2023-04-08T21:39:39.325Z,8.30
2023-04-08T21:41:41.063Z,8.20
2023-04-08T21:43:42.643Z,8.20
2023-04-08T21:45:44.386Z,8.20
2023-04-08T21:47:46.070Z,8.20
2023-04-08T21:49:48.934Z,8.20
2023-04-08T21:51:50.606Z,8.20
2023-04-08T21:53:52.549Z,8.20
2023-04-08T21:55:54.298Z,8.20
2023-04-08T21:57:56.244Z,8.20
2023-04-08T21:59:57.852Z,8.10
2023-04-08T22:01:59.753Z,8.10
2023-04-08T22:04:01.575Z,8.20
2023-04-08T22:06:03.326Z,8.20
2023-04-08T22:08:05.408Z,8.20
2023-04-08T22:10:07.437Z,8.00
2023-04-08T22:12:09.915Z,8.10
2023-04-08T22:14:11.591Z,8.00
2023-04-08T22:16:13.235Z,8.00
2023-04-08T22:18:14.931Z,8.00
2023-04-08T22:20:16.542Z,8.00
2023-04-08T22:22:18.664Z,8.00
2023-04-08T22:24:20.660Z,8.00
2023-04-08T22:26:22.659Z,8.10
2023-04-08T22:28:24.412Z,8.00
2023-04-08T22:30:26.077Z,8.10
2023-04-08T22:32:27.760Z,8.00
2023-04-08T22:34:29.377Z,8.00
2023-04-08T22:36:31.434Z,8.00
2023-04-08T22:38:33.194Z,8.00
2023-04-08T22:40:35.576Z,8.00
2023-04-08T22:42:37.268Z,8.00
2023-04-08T22:44:38.952Z,8.00
2023-04-08T22:46:40.635Z,8.00
2023-04-08T22:48:42.316Z,8.10
2023-04-08T22:50:43.893Z,8.10
2023-04-08T22:52:45.565Z,8.00
2023-04-08T22:54:47.210Z,8.00
2023-04-08T22:56:48.854Z,8.00
2023-04-08T22:58:51.041Z,8.00
2023-04-08T23:00:52.873Z,7.90
2023-04-08T23:02:54.739Z,7.90
2023-04-08T23:04:56.571Z,7.90
2023-04-08T23:06:58.171Z,7.90
2023-04-08T23:08:59.880Z,7.90
2023-04-08T23:11:01.522Z,7.80
2023-04-08T23:13:03.902Z,7.80
2023-04-08T23:15:05.858Z,7.90
2023-04-08T23:17:07.488Z,7.90
2023-04-08T23:19:09.067Z,7.90
2023-04-08T23:21:10.635Z,7.90
2023-04-08T23:23:12.237Z,7.80
2023-04-08T23:25:13.978Z,7.70
2023-04-08T23:27:15.707Z,7.70
2023-04-08T23:29:17.438Z,7.80
2023-04-08T23:31:19.287Z,7.80
2023-04-08T23:33:20.994Z,7.80
2023-04-08T23:35:22.602Z,7.80
2023-04-08T23:37:24.822Z,7.80
2023-04-08T23:39:26.415Z,7.70
2023-04-08T23:41:28.001Z,7.80
2023-04-08T23:43:29.730Z,7.80
2023-04-08T23:45:31.413Z,7.80
2023-04-08T23:47:33.020Z,7.80
2023-04-08T23:49:34.952Z,7.80
2023-04-08T23:51:38.755Z,7.70
2023-04-08T23:53:41.043Z,7.70
2023-04-08T23:55:42.640Z,7.70
2023-04-08T23:57:44.381Z,7.80
2023-04-08T23:59:46.719Z,7.70
